sensor_id;sensor_type;location;lat;lon;timestamp;P1;durP1;ratioP1;P2;durP2;ratioP2
47896;SDS011;39629;51.400;5.494;2022-10-16T00:00:40;4.55;;;1.75;;
47896;SDS011;39629;51.400;5.494;2022-10-16T00:05:43;4.18;;;2.15;;
47896;SDS011;39629;51.400;5.494;2022-10-16T00:10:46;4.40;;;1.77;;
47896;SDS011;39629;51.400;5.494;2022-10-16T00:15:48;3.35;;;1.83;;
47896;SDS011;39629;51.400;5.494;2022-10-16T00:20:50;5.78;;;1.90;;
47896;SDS011;39629;51.400;5.494;2022-10-16T00:25:56;3.28;;;1.63;;
47896;SDS011;39629;51.400;5.494;2022-10-16T00:30:59;2.78;;;1.67;;
47896;SDS011;39629;51.400;5.494;2022-10-16T00:36:04;3.47;;;1.70;;
47896;SDS011;39629;51.400;5.494;2022-10-16T00:41:09;3.23;;;1.60;;
47896;SDS011;39629;51.400;5.494;2022-10-16T00:46:15;2.60;;;1.73;;
47896;SDS011;39629;51.400;5.494;2022-10-16T00:51:19;3.35;;;1.63;;
47896;SDS011;39629;51.400;5.494;2022-10-16T00:56:25;6.13;;;1.60;;
47896;SDS011;39629;51.400;5.494;2022-10-16T01:01:27;2.65;;;1.42;;
47896;SDS011;39629;51.400;5.494;2022-10-16T01:06:31;2.90;;;1.20;;
47896;SDS011;39629;51.400;5.494;2022-10-16T01:11:44;3.15;;;1.30;;
47896;SDS011;39629;51.400;5.494;2022-10-16T01:16:52;2.95;;;1.40;;
47896;SDS011;39629;51.400;5.494;2022-10-16T01:22:00;3.67;;;1.30;;
47896;SDS011;39629;51.400;5.494;2022-10-16T01:27:08;1.80;;;1.00;;
47896;SDS011;39629;51.400;5.494;2022-10-16T01:32:15;2.22;;;1.30;;
47896;SDS011;39629;51.400;5.494;2022-10-16T01:37:24;3.08;;;1.40;;
47896;SDS011;39629;51.400;5.494;2022-10-16T01:42:35;3.85;;;1.10;;
47896;SDS011;39629;51.400;5.494;2022-10-16T01:47:40;2.53;;;1.20;;
47896;SDS011;39629;51.400;5.494;2022-10-16T01:52:45;2.05;;;1.08;;
47896;SDS011;39629;51.400;5.494;2022-10-16T01:57:50;4.40;;;1.30;;
47896;SDS011;39629;51.400;5.494;2022-10-16T02:02:54;1.92;;;1.08;;
47896;SDS011;39629;51.400;5.494;2022-10-16T02:07:59;2.55;;;1.00;;
47896;SDS011;39629;51.400;5.494;2022-10-16T02:13:03;1.60;;;1.10;;
47896;SDS011;39629;51.400;5.494;2022-10-16T02:18:08;3.35;;;0.85;;
47896;SDS011;39629;51.400;5.494;2022-10-16T02:23:12;2.55;;;1.10;;
47896;SDS011;39629;51.400;5.494;2022-10-16T02:28:23;1.75;;;0.80;;
47896;SDS011;39629;51.400;5.494;2022-10-16T02:33:29;1.48;;;0.95;;
47896;SDS011;39629;51.400;5.494;2022-10-16T02:38:32;1.73;;;1.00;;
47896;SDS011;39629;51.400;5.494;2022-10-16T02:43:36;2.08;;;1.00;;
47896;SDS011;39629;51.400;5.494;2022-10-16T02:48:37;3.28;;;1.00;;
47896;SDS011;39629;51.400;5.494;2022-10-16T02:53:39;1.60;;;0.82;;
47896;SDS011;39629;51.400;5.494;2022-10-16T02:58:42;2.33;;;1.00;;
47896;SDS011;39629;51.400;5.494;2022-10-16T03:03:44;1.70;;;0.82;;
47896;SDS011;39629;51.400;5.494;2022-10-16T03:08:46;3.03;;;0.80;;
47896;SDS011;39629;51.400;5.494;2022-10-16T03:13:49;3.05;;;1.00;;
47896;SDS011;39629;51.400;5.494;2022-10-16T03:18:50;1.95;;;1.00;;
47896;SDS011;39629;51.400;5.494;2022-10-16T03:23:52;2.20;;;0.80;;
47896;SDS011;39629;51.400;5.494;2022-10-16T03:28:55;3.00;;;0.93;;
47896;SDS011;39629;51.400;5.494;2022-10-16T03:33:56;2.97;;;1.00;;
47896;SDS011;39629;51.400;5.494;2022-10-16T03:38:58;2.03;;;1.02;;
47896;SDS011;39629;51.400;5.494;2022-10-16T03:44:01;3.25;;;0.90;;
47896;SDS011;39629;51.400;5.494;2022-10-16T03:49:02;2.35;;;1.00;;
47896;SDS011;39629;51.400;5.494;2022-10-16T03:54:04;3.47;;;1.02;;
47896;SDS011;39629;51.400;5.494;2022-10-16T03:59:07;2.13;;;0.80;;
47896;SDS011;39629;51.400;5.494;2022-10-16T04:04:09;4.32;;;1.00;;
47896;SDS011;39629;51.400;5.494;2022-10-16T04:09:10;2.30;;;1.00;;
47896;SDS011;39629;51.400;5.494;2022-10-16T04:14:13;3.00;;;0.90;;
47896;SDS011;39629;51.400;5.494;2022-10-16T04:19:15;2.47;;;1.00;;
47896;SDS011;39629;51.400;5.494;2022-10-16T04:24:17;3.47;;;1.00;;
47896;SDS011;39629;51.400;5.494;2022-10-16T04:29:19;2.63;;;1.00;;
47896;SDS011;39629;51.400;5.494;2022-10-16T04:34:21;1.75;;;1.00;;
47896;SDS011;39629;51.400;5.494;2022-10-16T04:39:23;9.88;;;1.40;;
47896;SDS011;39629;51.400;5.494;2022-10-16T04:44:26;2.22;;;0.90;;
47896;SDS011;39629;51.400;5.494;2022-10-16T04:49:27;4.47;;;1.25;;
47896;SDS011;39629;51.400;5.494;2022-10-16T04:54:29;3.45;;;0.90;;
47896;SDS011;39629;51.400;5.494;2022-10-16T04:59:32;3.42;;;1.20;;
47896;SDS011;39629;51.400;5.494;2022-10-16T05:04:34;2.67;;;1.00;;
47896;SDS011;39629;51.400;5.494;2022-10-16T05:09:35;1.80;;;0.82;;
47896;SDS011;39629;51.400;5.494;2022-10-16T05:14:38;2.78;;;1.20;;
47896;SDS011;39629;51.400;5.494;2022-10-16T05:19:40;2.13;;;1.00;;
47896;SDS011;39629;51.400;5.494;2022-10-16T05:24:41;3.10;;;0.90;;
47896;SDS011;39629;51.400;5.494;2022-10-16T05:29:45;2.92;;;1.10;;
47896;SDS011;39629;51.400;5.494;2022-10-16T05:34:47;3.38;;;1.00;;
47896;SDS011;39629;51.400;5.494;2022-10-16T05:39:49;2.50;;;0.90;;
47896;SDS011;39629;51.400;5.494;2022-10-16T05:44:52;3.10;;;1.20;;
47896;SDS011;39629;51.400;5.494;2022-10-16T05:49:54;3.60;;;1.10;;
47896;SDS011;39629;51.400;5.494;2022-10-16T05:54:56;2.33;;;0.93;;
47896;SDS011;39629;51.400;5.494;2022-10-16T05:59:58;3.97;;;0.95;;
47896;SDS011;39629;51.400;5.494;2022-10-16T06:05:00;4.45;;;1.10;;
47896;SDS011;39629;51.400;5.494;2022-10-16T06:10:02;2.28;;;1.10;;
47896;SDS011;39629;51.400;5.494;2022-10-16T06:15:06;6.13;;;1.13;;
47896;SDS011;39629;51.400;5.494;2022-10-16T06:20:08;1.67;;;1.10;;
47896;SDS011;39629;51.400;5.494;2022-10-16T06:25:10;3.78;;;1.10;;
47896;SDS011;39629;51.400;5.494;2022-10-16T06:30:13;1.67;;;0.93;;
47896;SDS011;39629;51.400;5.494;2022-10-16T06:35:14;3.08;;;1.25;;
47896;SDS011;39629;51.400;5.494;2022-10-16T06:40:16;2.92;;;0.90;;
47896;SDS011;39629;51.400;5.494;2022-10-16T06:45:19;1.50;;;0.90;;
47896;SDS011;39629;51.400;5.494;2022-10-16T06:50:21;3.58;;;1.30;;
47896;SDS011;39629;51.400;5.494;2022-10-16T06:55:22;2.15;;;0.98;;
47896;SDS011;39629;51.400;5.494;2022-10-16T07:00:25;2.30;;;1.30;;
47896;SDS011;39629;51.400;5.494;2022-10-16T07:05:27;2.85;;;1.08;;
47896;SDS011;39629;51.400;5.494;2022-10-16T07:10:29;5.60;;;1.65;;
47896;SDS011;39629;51.400;5.494;2022-10-16T07:15:32;4.28;;;1.38;;
47896;SDS011;39629;51.400;5.494;2022-10-16T07:20:34;2.50;;;1.27;;
47896;SDS011;39629;51.400;5.494;2022-10-16T07:25:37;2.53;;;1.15;;
47896;SDS011;39629;51.400;5.494;2022-10-16T07:30:40;4.40;;;1.50;;
47896;SDS011;39629;51.400;5.494;2022-10-16T07:35:47;5.45;;;1.85;;
47896;SDS011;39629;51.400;5.494;2022-10-16T07:40:55;3.70;;;1.50;;
47896;SDS011;39629;51.400;5.494;2022-10-16T07:45:59;3.22;;;1.70;;
47896;SDS011;39629;51.400;5.494;2022-10-16T07:51:02;3.30;;;1.80;;
47896;SDS011;39629;51.400;5.494;2022-10-16T07:56:05;2.63;;;1.43;;
47896;SDS011;39629;51.400;5.494;2022-10-16T08:01:10;4.28;;;1.52;;
47896;SDS011;39629;51.400;5.494;2022-10-16T08:06:13;2.88;;;1.10;;
47896;SDS011;39629;51.400;5.494;2022-10-16T08:11:15;4.68;;;1.35;;
47896;SDS011;39629;51.400;5.494;2022-10-16T08:16:19;2.35;;;1.30;;
47896;SDS011;39629;51.400;5.494;2022-10-16T08:21:21;3.42;;;1.30;;
47896;SDS011;39629;51.400;5.494;2022-10-16T08:26:24;5.13;;;1.45;;
47896;SDS011;39629;51.400;5.494;2022-10-16T08:31:28;4.22;;;1.30;;
47896;SDS011;39629;51.400;5.494;2022-10-16T08:36:30;4.20;;;1.20;;
47896;SDS011;39629;51.400;5.494;2022-10-16T08:41:35;2.15;;;1.00;;
47896;SDS011;39629;51.400;5.494;2022-10-16T08:46:53;4.97;;;1.10;;
47896;SDS011;39629;51.400;5.494;2022-10-16T08:52:04;3.30;;;0.90;;
47896;SDS011;39629;51.400;5.494;2022-10-16T08:57:07;2.65;;;0.75;;
47896;SDS011;39629;51.400;5.494;2022-10-16T09:02:28;2.88;;;0.70;;
47896;SDS011;39629;51.400;5.494;2022-10-16T09:07:34;2.08;;;0.80;;
47896;SDS011;39629;51.400;5.494;2022-10-16T09:12:47;6.28;;;0.93;;
47896;SDS011;39629;51.400;5.494;2022-10-16T09:17:56;4.25;;;1.00;;
47896;SDS011;39629;51.400;5.494;2022-10-16T09:23:10;4.70;;;0.90;;
47896;SDS011;39629;51.400;5.494;2022-10-16T09:28:16;2.35;;;0.73;;
47896;SDS011;39629;51.400;5.494;2022-10-16T09:33:20;7.72;;;0.82;;
47896;SDS011;39629;51.400;5.494;2022-10-16T09:38:27;3.58;;;0.77;;
47896;SDS011;39629;51.400;5.494;2022-10-16T09:43:32;2.53;;;0.77;;
47896;SDS011;39629;51.400;5.494;2022-10-16T09:48:39;7.72;;;1.10;;
47896;SDS011;39629;51.400;5.494;2022-10-16T09:53:46;15.25;;;1.55;;
47896;SDS011;39629;51.400;5.494;2022-10-16T09:58:49;6.03;;;0.95;;
47896;SDS011;39629;51.400;5.494;2022-10-16T10:09:04;8.27;;;0.82;;
47896;SDS011;39629;51.400;5.494;2022-10-16T10:14:17;6.20;;;0.73;;
47896;SDS011;39629;51.400;5.494;2022-10-16T10:19:28;2.95;;;0.63;;
47896;SDS011;39629;51.400;5.494;2022-10-16T10:24:30;5.30;;;0.88;;
47896;SDS011;39629;51.400;5.494;2022-10-16T10:29:36;1.77;;;0.55;;
47896;SDS011;39629;51.400;5.494;2022-10-16T10:34:54;5.32;;;1.13;;
47896;SDS011;39629;51.400;5.494;2022-10-16T10:40:07;5.57;;;1.25;;
47896;SDS011;39629;51.400;5.494;2022-10-16T10:45:23;6.03;;;1.13;;
47896;SDS011;39629;51.400;5.494;2022-10-16T10:50:30;3.90;;;0.68;;
47896;SDS011;39629;51.400;5.494;2022-10-16T10:55:40;3.70;;;1.13;;
47896;SDS011;39629;51.400;5.494;2022-10-16T11:00:48;4.93;;;0.82;;
47896;SDS011;39629;51.400;5.494;2022-10-16T11:06:00;5.88;;;0.93;;
47896;SDS011;39629;51.400;5.494;2022-10-16T11:11:08;5.97;;;0.80;;
47896;SDS011;39629;51.400;5.494;2022-10-16T11:16:16;2.97;;;0.70;;
47896;SDS011;39629;51.400;5.494;2022-10-16T11:21:23;2.90;;;0.85;;
47896;SDS011;39629;51.400;5.494;2022-10-16T11:26:26;4.40;;;0.75;;
47896;SDS011;39629;51.400;5.494;2022-10-16T11:31:32;4.57;;;1.00;;
47896;SDS011;39629;51.400;5.494;2022-10-16T11:36:40;1.95;;;0.60;;
47896;SDS011;39629;51.400;5.494;2022-10-16T11:41:46;2.00;;;0.65;;
47896;SDS011;39629;51.400;5.494;2022-10-16T11:46:52;3.33;;;0.80;;
47896;SDS011;39629;51.400;5.494;2022-10-16T11:52:05;4.43;;;0.85;;
47896;SDS011;39629;51.400;5.494;2022-10-16T11:57:13;4.13;;;0.80;;
47896;SDS011;39629;51.400;5.494;2022-10-16T12:02:30;2.95;;;0.65;;
47896;SDS011;39629;51.400;5.494;2022-10-16T12:07:41;4.20;;;0.80;;
47896;SDS011;39629;51.400;5.494;2022-10-16T12:12:50;2.83;;;0.70;;
47896;SDS011;39629;51.400;5.494;2022-10-16T12:17:52;3.60;;;0.60;;
47896;SDS011;39629;51.400;5.494;2022-10-16T12:22:56;5.28;;;0.60;;
47896;SDS011;39629;51.400;5.494;2022-10-16T12:28:01;2.63;;;0.55;;
47896;SDS011;39629;51.400;5.494;2022-10-16T12:33:05;5.15;;;0.80;;
47896;SDS011;39629;51.400;5.494;2022-10-16T12:38:21;2.92;;;0.82;;
47896;SDS011;39629;51.400;5.494;2022-10-16T12:43:27;3.72;;;0.70;;
47896;SDS011;39629;51.400;5.494;2022-10-16T12:48:37;2.55;;;0.50;;
47896;SDS011;39629;51.400;5.494;2022-10-16T12:53:42;5.25;;;0.70;;
47896;SDS011;39629;51.400;5.494;2022-10-16T12:58:50;4.00;;;1.00;;
47896;SDS011;39629;51.400;5.494;2022-10-16T13:04:02;4.25;;;0.77;;
47896;SDS011;39629;51.400;5.494;2022-10-16T13:09:19;3.83;;;0.65;;
47896;SDS011;39629;51.400;5.494;2022-10-16T13:14:42;3.20;;;0.68;;
47896;SDS011;39629;51.400;5.494;2022-10-16T13:19:57;3.97;;;0.65;;
47896;SDS011;39629;51.400;5.494;2022-10-16T13:25:15;3.03;;;0.70;;
47896;SDS011;39629;51.400;5.494;2022-10-16T13:30:24;1.83;;;0.40;;
47896;SDS011;39629;51.400;5.494;2022-10-16T13:35:28;4.53;;;0.70;;
47896;SDS011;39629;51.400;5.494;2022-10-16T13:40:33;1.70;;;0.60;;
47896;SDS011;39629;51.400;5.494;2022-10-16T13:45:34;3.33;;;0.70;;
47896;SDS011;39629;51.400;5.494;2022-10-16T13:50:36;1.90;;;0.60;;
47896;SDS011;39629;51.400;5.494;2022-10-16T13:55:39;3.40;;;0.50;;
47896;SDS011;39629;51.400;5.494;2022-10-16T14:00:42;2.70;;;0.70;;
47896;SDS011;39629;51.400;5.494;2022-10-16T14:05:57;2.60;;;0.90;;
47896;SDS011;39629;51.400;5.494;2022-10-16T14:11:02;2.50;;;0.57;;
47896;SDS011;39629;51.400;5.494;2022-10-16T14:16:05;2.65;;;0.57;;
47896;SDS011;39629;51.400;5.494;2022-10-16T14:21:11;2.63;;;0.70;;
47896;SDS011;39629;51.400;5.494;2022-10-16T14:26:18;2.35;;;0.57;;
47896;SDS011;39629;51.400;5.494;2022-10-16T14:31:26;2.20;;;0.60;;
47896;SDS011;39629;51.400;5.494;2022-10-16T14:36:29;1.00;;;0.60;;
47896;SDS011;39629;51.400;5.494;2022-10-16T14:41:48;2.95;;;0.93;;
47896;SDS011;39629;51.400;5.494;2022-10-16T14:46:52;3.40;;;0.60;;
47896;SDS011;39629;51.400;5.494;2022-10-16T14:51:53;3.08;;;0.50;;
47896;SDS011;39629;51.400;5.494;2022-10-16T14:56:57;3.05;;;0.50;;
47896;SDS011;39629;51.400;5.494;2022-10-16T15:01:59;4.20;;;0.63;;
47896;SDS011;39629;51.400;5.494;2022-10-16T15:07:08;1.23;;;0.60;;
47896;SDS011;39629;51.400;5.494;2022-10-16T15:12:11;2.22;;;0.60;;
47896;SDS011;39629;51.400;5.494;2022-10-16T15:17:13;2.58;;;0.60;;
47896;SDS011;39629;51.400;5.494;2022-10-16T15:22:15;2.47;;;0.50;;
47896;SDS011;39629;51.400;5.494;2022-10-16T15:27:18;2.42;;;0.47;;
47896;SDS011;39629;51.400;5.494;2022-10-16T15:32:20;3.03;;;0.70;;
47896;SDS011;39629;51.400;5.494;2022-10-16T15:37:21;5.25;;;0.60;;
47896;SDS011;39629;51.400;5.494;2022-10-16T15:42:24;2.63;;;0.60;;
47896;SDS011;39629;51.400;5.494;2022-10-16T15:47:26;3.00;;;0.60;;
47896;SDS011;39629;51.400;5.494;2022-10-16T15:52:27;1.60;;;0.45;;
47896;SDS011;39629;51.400;5.494;2022-10-16T15:57:33;5.50;;;0.80;;
47896;SDS011;39629;51.400;5.494;2022-10-16T16:02:34;5.70;;;0.82;;
47896;SDS011;39629;51.400;5.494;2022-10-16T16:07:36;3.92;;;0.68;;
47896;SDS011;39629;51.400;5.494;2022-10-16T16:12:40;1.40;;;0.50;;
47896;SDS011;39629;51.400;5.494;2022-10-16T16:17:42;2.43;;;0.60;;
47896;SDS011;39629;51.400;5.494;2022-10-16T16:22:44;1.95;;;0.70;;
47896;SDS011;39629;51.400;5.494;2022-10-16T16:27:47;3.53;;;0.50;;
47896;SDS011;39629;51.400;5.494;2022-10-16T16:32:49;1.73;;;0.85;;
47896;SDS011;39629;51.400;5.494;2022-10-16T16:37:50;3.67;;;1.00;;
47896;SDS011;39629;51.400;5.494;2022-10-16T16:42:53;4.03;;;0.90;;
47896;SDS011;39629;51.400;5.494;2022-10-16T16:47:55;2.67;;;1.00;;
47896;SDS011;39629;51.400;5.494;2022-10-16T16:52:57;2.45;;;0.93;;
47896;SDS011;39629;51.400;5.494;2022-10-16T16:58:00;4.65;;;1.40;;
47896;SDS011;39629;51.400;5.494;2022-10-16T17:03:03;3.58;;;1.20;;
47896;SDS011;39629;51.400;5.494;2022-10-16T17:08:06;2.85;;;0.95;;
47896;SDS011;39629;51.400;5.494;2022-10-16T17:13:09;3.13;;;0.88;;
47896;SDS011;39629;51.400;5.494;2022-10-16T17:18:11;4.38;;;1.00;;
47896;SDS011;39629;51.400;5.494;2022-10-16T17:23:13;4.95;;;0.90;;
47896;SDS011;39629;51.400;5.494;2022-10-16T17:28:17;2.08;;;0.60;;
47896;SDS011;39629;51.400;5.494;2022-10-16T17:33:18;3.38;;;1.00;;
47896;SDS011;39629;51.400;5.494;2022-10-16T17:38:20;3.63;;;1.30;;
47896;SDS011;39629;51.400;5.494;2022-10-16T17:43:23;4.97;;;1.20;;
47896;SDS011;39629;51.400;5.494;2022-10-16T17:48:24;5.88;;;1.20;;
47896;SDS011;39629;51.400;5.494;2022-10-16T17:53:26;4.18;;;1.42;;
47896;SDS011;39629;51.400;5.494;2022-10-16T17:58:29;5.60;;;1.60;;
47896;SDS011;39629;51.400;5.494;2022-10-16T18:03:31;2.72;;;1.13;;
47896;SDS011;39629;51.400;5.494;2022-10-16T18:08:33;3.72;;;1.13;;
47896;SDS011;39629;51.400;5.494;2022-10-16T18:13:37;5.13;;;1.30;;
47896;SDS011;39629;51.400;5.494;2022-10-16T18:18:39;5.80;;;1.67;;
47896;SDS011;39629;51.400;5.494;2022-10-16T18:23:42;7.45;;;3.53;;
47896;SDS011;39629;51.400;5.494;2022-10-16T18:28:46;8.35;;;3.47;;
47896;SDS011;39629;51.400;5.494;2022-10-16T18:33:47;5.37;;;2.30;;
47896;SDS011;39629;51.400;5.494;2022-10-16T18:38:50;4.38;;;2.50;;
47896;SDS011;39629;51.400;5.494;2022-10-16T18:43:53;5.65;;;2.50;;
47896;SDS011;39629;51.400;5.494;2022-10-16T18:48:56;6.17;;;2.70;;
47896;SDS011;39629;51.400;5.494;2022-10-16T18:54:00;4.13;;;2.30;;
47896;SDS011;39629;51.400;5.494;2022-10-16T18:59:05;5.30;;;1.98;;
47896;SDS011;39629;51.400;5.494;2022-10-16T19:04:09;7.18;;;1.90;;
47896;SDS011;39629;51.400;5.494;2022-10-16T19:09:12;4.72;;;2.20;;
47896;SDS011;39629;51.400;5.494;2022-10-16T19:14:16;4.15;;;2.15;;
47896;SDS011;39629;51.400;5.494;2022-10-16T19:19:20;2.85;;;1.80;;
47896;SDS011;39629;51.400;5.494;2022-10-16T19:24:22;4.60;;;2.00;;
47896;SDS011;39629;51.400;5.494;2022-10-16T19:29:25;5.80;;;2.28;;
47896;SDS011;39629;51.400;5.494;2022-10-16T19:34:27;6.60;;;2.40;;
47896;SDS011;39629;51.400;5.494;2022-10-16T19:39:29;4.28;;;2.25;;
47896;SDS011;39629;51.400;5.494;2022-10-16T19:44:32;4.13;;;2.47;;
47896;SDS011;39629;51.400;5.494;2022-10-16T19:49:34;6.28;;;2.35;;
47896;SDS011;39629;51.400;5.494;2022-10-16T19:54:35;4.22;;;2.00;;
47896;SDS011;39629;51.400;5.494;2022-10-16T19:59:39;3.85;;;2.25;;
47896;SDS011;39629;51.400;5.494;2022-10-16T20:04:42;5.00;;;2.00;;
47896;SDS011;39629;51.400;5.494;2022-10-16T20:09:43;4.78;;;2.17;;
47896;SDS011;39629;51.400;5.494;2022-10-16T20:14:46;6.57;;;2.08;;
47896;SDS011;39629;51.400;5.494;2022-10-16T20:19:48;6.28;;;2.92;;
47896;SDS011;39629;51.400;5.494;2022-10-16T20:24:49;4.72;;;3.10;;
47896;SDS011;39629;51.400;5.494;2022-10-16T20:29:53;5.05;;;2.78;;
47896;SDS011;39629;51.400;5.494;2022-10-16T20:34:54;5.88;;;2.97;;
47896;SDS011;39629;51.400;5.494;2022-10-16T20:39:56;5.07;;;3.22;;
47896;SDS011;39629;51.400;5.494;2022-10-16T20:44:59;4.25;;;2.28;;
47896;SDS011;39629;51.400;5.494;2022-10-16T20:50:01;3.45;;;2.40;;
47896;SDS011;39629;51.400;5.494;2022-10-16T20:55:03;6.63;;;3.10;;
47896;SDS011;39629;51.400;5.494;2022-10-16T21:00:07;7.15;;;3.33;;
47896;SDS011;39629;51.400;5.494;2022-10-16T21:05:09;5.53;;;2.72;;
47896;SDS011;39629;51.400;5.494;2022-10-16T21:10:11;5.38;;;2.30;;
47896;SDS011;39629;51.400;5.494;2022-10-16T21:15:14;7.82;;;3.05;;
47896;SDS011;39629;51.400;5.494;2022-10-16T21:20:16;5.10;;;2.80;;
47896;SDS011;39629;51.400;5.494;2022-10-16T21:25:17;5.85;;;2.95;;
47896;SDS011;39629;51.400;5.494;2022-10-16T21:30:20;5.30;;;3.67;;
47896;SDS011;39629;51.400;5.494;2022-10-16T21:35:22;6.07;;;3.03;;
47896;SDS011;39629;51.400;5.494;2022-10-16T21:40:24;6.35;;;3.60;;
47896;SDS011;39629;51.400;5.494;2022-10-16T21:45:27;6.60;;;3.40;;
47896;SDS011;39629;51.400;5.494;2022-10-16T21:50:29;5.57;;;3.50;;
47896;SDS011;39629;51.400;5.494;2022-10-16T21:55:34;8.35;;;4.25;;
47896;SDS011;39629;51.400;5.494;2022-10-16T22:00:37;4.47;;;3.25;;
47896;SDS011;39629;51.400;5.494;2022-10-16T22:05:39;6.78;;;3.35;;
47896;SDS011;39629;51.400;5.494;2022-10-16T22:10:40;4.18;;;3.03;;
47896;SDS011;39629;51.400;5.494;2022-10-16T22:15:48;4.93;;;3.20;;
47896;SDS011;39629;51.400;5.494;2022-10-16T22:20:51;5.80;;;3.13;;
47896;SDS011;39629;51.400;5.494;2022-10-16T22:25:57;8.38;;;3.60;;
47896;SDS011;39629;51.400;5.494;2022-10-16T22:31:01;4.88;;;3.13;;
47896;SDS011;39629;51.400;5.494;2022-10-16T22:36:04;7.25;;;3.95;;
47896;SDS011;39629;51.400;5.494;2022-10-16T22:41:09;4.03;;;2.58;;
47896;SDS011;39629;51.400;5.494;2022-10-16T22:46:13;5.35;;;3.75;;
47896;SDS011;39629;51.400;5.494;2022-10-16T22:51:16;6.85;;;3.80;;
47896;SDS011;39629;51.400;5.494;2022-10-16T22:56:19;6.82;;;3.10;;
47896;SDS011;39629;51.400;5.494;2022-10-16T23:01:24;4.25;;;3.15;;
47896;SDS011;39629;51.400;5.494;2022-10-16T23:06:27;6.57;;;3.53;;
47896;SDS011;39629;51.400;5.494;2022-10-16T23:11:29;2.97;;;2.35;;
47896;SDS011;39629;51.400;5.494;2022-10-16T23:16:32;4.50;;;2.70;;
47896;SDS011;39629;51.400;5.494;2022-10-16T23:21:33;5.15;;;2.85;;
47896;SDS011;39629;51.400;5.494;2022-10-16T23:26:35;5.60;;;3.10;;
47896;SDS011;39629;51.400;5.494;2022-10-16T23:31:38;6.78;;;3.90;;
47896;SDS011;39629;51.400;5.494;2022-10-16T23:36:39;5.55;;;3.90;;
47896;SDS011;39629;51.400;5.494;2022-10-16T23:41:42;6.65;;;3.70;;
47896;SDS011;39629;51.400;5.494;2022-10-16T23:46:45;5.07;;;3.67;;
47896;SDS011;39629;51.400;5.494;2022-10-16T23:51:46;4.53;;;3.10;;
47896;SDS011;39629;51.400;5.494;2022-10-16T23:56:48;9.77;;;4.53;;
